Time;durP1;ratioP1;P1;durP2;ratioP2;P2;SDS_P1;SDS_P2;PMS_P1;PMS_P2;Temp;Humidity;BMP_temperature;BMP_pressure;BME280_temperature;BME280_humidity;BME280_pressure;Samples;Min_cycle;Max_cycle;Signal;HPM_P1;HPM_P2
2023/12/09 01:34:19;;;;;;;20.80;15.10;;;;;;;14.54;33.13;100129.02;101692;1292;601117;-61
2023/12/09 01:36:47;;;;;;;17.20;13.60;;;;;;;16.42;29.76;100123.09;104047;1264;59322;-62
2023/12/09 01:39:15;;;;;;;20.30;14.50;;;;;;;16.29;29.59;100122.23;103809;1267;59711;-61
2023/12/09 01:41:43;;;;;;;20.10;14.20;;;;;;;16.15;29.69;100122.15;104391;1270;72277;-62
2023/12/09 01:44:10;;;;;;;;;;;;;;;15.64;30.13;100119.04;104583;1269;70264;-61
2023/12/09 01:46:38;;;;;;;;;;;;;;;15.75;30.10;100119.35;103846;1264;72882;-61
2023/12/09 01:49:06;;;;;;;20.30;14.60;;;;;;;15.38;30.56;100117.48;104240;1269;152452;-61
2023/12/09 01:51:34;;;;;;;17.90;14.10;;;;;;;15.16;30.78;100119.25;104041;1268;59834;-61
2023/12/09 01:54:02;;;;;;;;;;;;;;;14.98;30.94;100119.64;104224;1268;72908;-62
2023/12/09 01:56:29;;;;;;;19.40;14.00;;;;;;;14.90;31.04;100119.91;103896;1277;69913;-61
2023/12/09 01:58:57;;;;;;;19.10;15.10;;;;;;;14.89;31.13;100122.79;104165;1267;72380;-62
2023/12/09 02:01:25;;;;;;;18.30;14.30;;;;;;;14.89;31.13;100120.12;103907;1267;60618;-61
2023/12/09 02:03:52;;;;;;;;;;;;;;;14.79;31.25;100116.98;104393;1266;60843;-62
2023/12/09 02:06:20;;;;;;;18.70;14.20;;;;;;;14.64;31.51;100120.05;103926;1270;72875;-61
2023/12/09 02:08:48;;;;;;;18.90;14.50;;;;;;;14.62;31.48;100119.77;104746;1261;69152;-62
2023/12/09 02:11:28;;;;;;;18.80;14.60;;;;;;;14.58;31.57;100118.05;104289;1264;71432;-62
2023/12/09 02:14:07;;;;;;;23.10;14.20;;;;;;;14.62;31.70;100118.73;104152;1264;60626;-61
2023/12/09 02:16:48;;;;;;;18.50;14.60;;;;;;;14.71;31.63;100118.63;104177;1262;59754;-61
2023/12/09 02:19:15;;;;;;;18.20;14.10;;;;;;;14.72;31.50;100118.36;104345;1269;71731;-62
2023/12/09 02:22:16;;;;;;;19.80;14.90;;;;;;;14.62;31.62;100118.73;104138;1264;68854;-62
2023/12/09 02:24:43;;;;;;;19.50;14.60;;;;;;;14.61;31.73;100116.81;103925;1267;72414;-61
2023/12/09 02:27:15;;;;;;;22.30;15.20;;;;;;;14.55;31.84;100110.59;103984;1277;61429;-65
2023/12/09 02:29:56;;;;;;;20.30;14.60;;;;;;;14.44;31.78;100109.39;104561;1269;59806;-67
2023/12/09 02:32:26;;;;;;;20.00;14.60;;;;;;;14.50;32.01;100109.42;104507;1267;72841;-61
2023/12/09 02:34:54;;;;;;;19.20;14.20;;;;;;;14.54;31.98;100113.09;104485;1263;69609;-61
2023/12/09 02:37:21;;;;;;;19.40;15.00;;;;;;;14.55;32.01;100109.89;104051;1270;72567;-61
2023/12/09 02:39:49;;;;;;;;;;;;;;;14.54;31.98;100107.98;104406;1267;59937;-62
2023/12/09 02:42:16;;;;;;;;;;;;;;;14.63;32.05;100107.59;103892;1269;59941;-63
2023/12/09 02:44:44;;;;;;;;;;;;;;;14.66;32.10;100103.36;104258;1269;72889;-61
2023/12/09 02:47:15;;;;;;;20.00;14.30;;;;;;;14.76;31.93;100104.95;103825;1269;69398;-62
2023/12/09 02:49:43;;;;;;;20.10;14.50;;;;;;;14.78;31.79;100102.70;104259;1269;72663;-61
2023/12/09 02:52:11;;;;;;;21.20;15.20;;;;;;;14.78;31.75;100104.64;104676;1266;60373;-62
2023/12/09 02:54:38;;;;;;;19.50;14.40;;;;;;;14.64;31.96;100108.59;104298;1264;60087;-62
2023/12/09 02:57:06;;;;;;;22.40;13.80;;;;;;;14.63;31.89;100108.45;104649;1275;72532;-61
2023/12/09 02:59:34;;;;;;;;;;;;;;;14.63;31.94;100112.01;104546;1257;68350;-62
2023/12/09 03:02:01;;;;;;;19.50;14.00;;;;;;;14.63;32.07;100116.36;104877;1261;73152;-61
2023/12/09 03:04:31;;;;;;;19.00;13.60;;;;;;;14.53;32.19;100115.81;104618;1260;59675;-62
2023/12/09 03:06:58;;;;;;;19.10;13.20;;;;;;;14.55;32.10;100117.84;104537;1262;59783;-62
2023/12/09 03:09:26;;;;;;;;;;;;;;;14.54;32.16;100119.65;104809;1262;72844;-61
2023/12/09 03:11:54;;;;;;;22.10;14.30;;;;;;;14.53;32.15;100121.27;104268;1263;69122;-62
2023/12/09 03:14:23;;;;;;;19.20;14.40;;;;;;;14.54;32.28;100119.30;104531;1276;72417;-62
2023/12/09 03:16:50;;;;;;;18.80;14.40;;;;;;;14.64;32.29;100120.41;104542;1263;60579;-63
2023/12/09 03:19:18;;;;;;;19.90;14.30;;;;;;;14.72;32.16;100124.71;104407;1260;59835;-62
2023/12/09 03:21:45;;;;;;;17.70;13.70;;;;;;;14.77;31.91;100125.04;104542;1257;71835;-62
2023/12/09 03:24:13;;;;;;;19.80;14.60;;;;;;;14.69;31.98;100121.88;104694;1256;70069;-62
2023/12/09 03:26:41;;;;;;;;;;;;;;;14.62;32.02;100119.64;104808;1257;72347;-62
2023/12/09 03:29:08;;;;;;;;;;;;;;;14.49;32.24;100117.05;104228;1259;60677;-62
2023/12/09 03:31:39;;;;;;;23.90;14.50;;;;;;;14.51;32.27;100119.97;104899;1256;59810;-62
2023/12/09 03:34:07;;;;;;;22.50;14.50;;;;;;;14.49;32.34;100124.11;105153;1258;72889;-62
2023/12/09 03:36:35;;;;;;;20.90;14.10;;;;;;;14.45;32.33;100126.46;104847;1261;70020;-62
2023/12/09 03:39:03;;;;;;;;;;;;;;;14.44;32.23;100128.95;104415;1258;73417;-61
2023/12/09 03:41:31;;;;;;;22.00;14.20;;;;;;;14.47;32.29;100132.70;104349;1263;60955;-61
2023/12/09 03:43:59;;;;;;;;;;;;;;;14.52;32.30;100134.20;105168;1258;59752;-62
2023/12/09 03:46:27;;;;;;;22.40;14.60;;;;;;;14.63;32.17;100133.70;104463;1271;72811;-62
2023/12/09 03:48:54;;;;;;;21.10;14.60;;;;;;;14.70;32.10;100137.38;104659;1263;69973;-63
2023/12/09 03:51:22;;;;;;;21.80;14.50;;;;;;;14.70;32.05;100141.44;104266;1263;72272;-62
2023/12/09 03:53:50;;;;;;;;;;;;;;;14.58;32.08;100138.87;104820;1256;59775;-62
2023/12/09 03:56:18;;;;;;;21.30;14.60;;;;;;;14.48;32.10;100135.48;104717;1264;59653;-61
2023/12/09 03:58:45;;;;;;;23.50;14.20;;;;;;;14.73;31.87;100134.89;104223;1277;73703;-62
2023/12/09 04:01:13;;;;;;;;;;;;;;;14.64;31.96;100132.53;104444;1264;69638;-61
2023/12/09 04:03:40;;;;;;;21.60;14.40;;;;;;;14.57;32.08;100127.27;104472;1262;72309;-61
2023/12/09 04:06:08;;;;;;;19.50;14.60;;;;;;;14.55;32.07;100126.31;104711;1256;60074;-62
2023/12/09 04:08:36;;;;;;;20.90;14.90;;;;;;;14.42;32.06;100128.15;104655;1263;59800;-62
2023/12/09 04:11:04;;;;;;;21.20;14.30;;;;;;;14.38;32.33;100124.66;104850;1262;72887;-63
2023/12/09 04:13:35;;;;;;;20.70;15.00;;;;;;;14.46;32.36;100120.91;104429;1262;69030;-61
2023/12/09 04:16:03;;;;;;;24.50;15.80;;;;;;;14.43;32.23;100122.66;104659;1259;72830;-62
2023/12/09 04:18:31;;;;;;;22.70;15.40;;;;;;;14.42;32.32;100122.55;104660;1256;60573;-62
2023/12/09 04:20:59;;;;;;;;;;;;;;;14.42;32.33;100123.39;104619;1260;59762;-62
2023/12/09 04:23:26;;;;;;;;;;;;;;;14.48;32.30;100123.66;104720;1260;71572;-62
2023/12/09 04:25:54;;;;;;;22.80;14.80;;;;;;;14.48;32.24;100117.29;104215;1263;68011;-61
2023/12/09 04:28:22;;;;;;;21.40;14.90;;;;;;;14.48;32.42;100121.55;104710;1263;72889;-62
2023/12/09 04:30:50;;;;;;;26.30;15.90;;;;;;;14.55;32.38;100121.37;104798;1257;60578;-61
2023/12/09 04:33:18;;;;;;;21.60;15.90;;;;;;;14.60;32.21;100123.06;104655;1264;59710;-61
2023/12/09 04:35:45;;;;;;;23.10;15.70;;;;;;;14.60;32.19;100123.59;105039;1263;73267;-61
2023/12/09 04:38:13;;;;;;;22.30;15.20;;;;;;;14.53;32.18;100126.57;104493;1263;70395;-61
2023/12/09 04:40:42;;;;;;;25.80;14.80;;;;;;;14.47;32.32;100126.54;104512;1262;72593;-62
2023/12/09 04:43:10;;;;;;;21.80;15.20;;;;;;;14.50;32.32;100125.31;104931;1257;60684;-62
2023/12/09 04:45:38;;;;;;;23.20;15.70;;;;;;;14.58;32.22;100125.30;104565;1263;59749;-61
2023/12/09 04:48:06;;;;;;;24.00;15.30;;;;;;;14.70;32.18;100124.31;104727;1256;71809;-62
2023/12/09 04:50:34;;;;;;;24.80;16.20;;;;;;;14.71;32.16;100129.57;107927;1257;69659;-62
2023/12/09 04:53:01;;;;;;;21.30;15.50;;;;;;;14.62;32.06;100130.55;107886;1257;72333;-62
2023/12/09 04:55:29;;;;;;;22.40;14.90;;;;;;;14.68;32.13;100131.47;107794;1257;60614;-62
2023/12/09 04:57:57;;;;;;;26.70;16.90;;;;;;;14.77;32.08;100131.35;108028;1256;61553;-62
2023/12/09 05:00:25;;;;;;;22.30;16.10;;;;;;;14.78;32.27;100132.86;108181;1256;71797;-62
2023/12/09 05:02:53;;;;;;;22.90;15.40;;;;;;;14.90;32.28;100135.96;108252;1255;68499;-62
2023/12/09 05:05:20;;;;;;;20.60;15.50;;;;;;;15.01;32.21;100139.10;107950;1257;72305;-62
2023/12/09 05:07:48;;;;;;;22.20;15.50;;;;;;;15.09;32.05;100144.50;107899;1257;59995;-62
2023/12/09 05:10:16;;;;;;;27.50;17.10;;;;;;;15.01;32.15;100156.21;108042;1256;58723;-62
2023/12/09 05:12:43;;;;;;;25.60;17.10;;;;;;;14.90;32.23;100161.05;107930;1260;72846;-61
2023/12/09 05:15:11;;;;;;;;;;;;;;;14.95;32.19;100162.51;108174;1259;69558;-61
2023/12/09 05:17:39;;;;;;;;;;;;;;;15.05;32.15;100155.12;107985;1255;72483;-61
2023/12/09 05:20:09;;;;;;;26.00;16.00;;;;;;;15.15;32.07;100155.11;107921;1257;58421;-61
2023/12/09 05:22:37;;;;;;;27.70;17.20;;;;;;;15.17;31.93;100155.71;107964;1256;58913;-61
2023/12/09 05:25:05;;;;;;;23.30;15.40;;;;;;;15.24;31.69;100153.77;107976;1256;72871;-62
2023/12/09 05:27:33;;;;;;;26.10;17.80;;;;;;;15.18;31.88;100156.39;107976;1257;69595;-62
2023/12/09 05:30:01;;;;;;;30.50;17.40;;;;;;;15.29;31.77;100161.42;107990;1256;72549;-61
2023/12/09 05:32:28;;;;;;;;;;;;;;;15.33;31.79;100165.11;107924;1257;60950;-61
2023/12/09 05:34:56;;;;;;;27.70;16.40;;;;;;;15.37;31.69;100173.70;107978;1257;59800;-61
2023/12/09 05:37:24;;;;;;;24.40;16.80;;;;;;;15.35;31.74;100174.54;107970;1255;72903;-61
2023/12/09 05:39:51;;;;;;;;;;;;;;;15.45;31.64;100173.46;108008;1257;70500;-61
2023/12/09 05:42:19;;;;;;;;;;;;;;;15.44;31.58;100169.27;107963;1257;72527;-61
2023/12/09 05:44:46;;;;;;;29.10;16.60;;;;;;;15.45;31.65;100166.95;107884;1257;60805;-62
2023/12/09 05:50:15;;;;;;;27.90;17.30;;;;;;;15.38;31.69;100164.14;101475;1292;603995;-61
2023/12/09 05:52:43;;;;;;;25.30;16.50;;;;;;;15.25;31.70;100165.36;103628;1271;59961;-61
2023/12/09 05:55:14;;;;;;;23.20;15.20;;;;;;;15.08;31.95;100168.00;103862;1269;61021;-61
2023/12/09 05:57:43;;;;;;;24.90;15.60;;;;;;;15.06;32.08;100171.15;103519;1271;72049;-61
2023/12/09 06:00:12;;;;;;;21.70;13.60;;;;;;;15.04;32.03;100172.83;103701;1276;68631;-61
2023/12/09 06:02:41;;;;;;;21.70;13.50;;;;;;;15.03;32.10;100175.34;103660;1269;72426;-61
2023/12/09 06:05:09;;;;;;;18.50;12.70;;;;;;;14.95;32.19;100171.70;103798;1269;59704;-61
2023/12/09 06:07:37;;;;;;;20.80;12.80;;;;;;;15.02;32.25;100170.64;103960;1263;59445;-61
2023/12/09 06:10:05;;;;;;;18.10;12.00;;;;;;;15.10;32.02;100174.09;103975;1269;72898;-61
2023/12/09 06:12:33;;;;;;;19.70;11.80;;;;;;;15.04;32.01;100171.59;104244;1265;69879;-61
2023/12/09 06:15:01;;;;;;;18.00;12.20;;;;;;;14.97;32.14;100172.50;104972;1260;71304;-60
2023/12/09 06:17:28;;;;;;;;;;;;;;;14.99;32.19;100171.48;105692;1266;60527;-61
2023/12/09 06:19:56;;;;;;;;;;;;;;;14.99;32.36;100169.90;104928;1266;59753;-63
2023/12/09 06:22:23;;;;;;;;;;;;;;;14.93;32.40;100169.14;104349;1267;72721;-64
2023/12/09 06:24:51;;;;;;;19.00;11.60;;;;;;;14.90;32.23;100167.22;105540;1251;68159;-61
2023/12/09 06:27:19;;;;;;;21.20;12.00;;;;;;;14.79;32.14;100162.66;105424;1253;72485;-61
2023/12/09 06:29:47;;;;;;;19.40;12.60;;;;;;;14.77;32.24;100162.05;104925;1257;60582;-62
2023/12/09 06:32:14;;;;;;;18.20;11.80;;;;;;;14.84;32.31;100160.83;104924;1251;60300;-62
2023/12/09 06:34:42;;;;;;;16.20;12.00;;;;;;;14.87;32.35;100160.30;104735;1256;72857;-62
2023/12/09 06:37:10;;;;;;;17.50;12.70;;;;;;;14.83;32.26;100161.39;104953;1256;70128;-64
2023/12/09 06:39:38;;;;;;;20.00;12.30;;;;;;;14.80;32.22;100158.73;104749;1251;72250;-62
2023/12/09 06:42:05;;;;;;;;;;;;;;;14.78;32.27;100159.33;104592;1261;59725;-62
2023/12/09 06:44:33;;;;;;;18.50;11.50;;;;;;;14.83;32.22;100157.86;104646;1259;60105;-62
2023/12/09 06:47:01;;;;;;;19.30;12.60;;;;;;;14.86;32.25;100160.36;104853;1251;72720;-62
2023/12/09 06:49:29;;;;;;;20.10;12.70;;;;;;;14.89;32.31;100160.57;104571;1266;69275;-63
2023/12/09 06:51:57;;;;;;;18.00;12.80;;;;;;;14.92;32.29;100162.50;104775;1273;71580;-62
2023/12/09 06:54:24;;;;;;;;;;;;;;;14.76;32.18;100165.11;104733;1256;59711;-61
2023/12/09 06:56:52;;;;;;;17.20;12.00;;;;;;;14.78;32.24;100169.05;104520;1254;59824;-61
2023/12/09 06:59:20;;;;;;;19.80;11.90;;;;;;;14.69;32.38;100170.05;104417;1257;72036;-61
2023/12/09 07:01:49;;;;;;;18.00;12.90;;;;;;;14.76;32.41;100167.94;104437;1274;69522;-63
2023/12/09 07:04:17;;;;;;;18.90;13.00;;;;;;;14.85;32.19;100169.59;104703;1256;71996;-61
2023/12/09 07:06:45;;;;;;;17.20;12.70;;;;;;;14.82;32.38;100169.59;104513;1267;59689;-63
2023/12/09 07:09:13;;;;;;;18.20;11.80;;;;;;;14.87;32.18;100167.73;104731;1267;61763;-62
2023/12/09 07:11:41;;;;;;;15.50;11.00;;;;;;;14.74;32.24;100175.09;104881;1250;72975;-63
2023/12/09 07:14:15;;;;;;;16.60;10.50;;;;;;;14.67;32.49;100175.80;106849;1254;72270;-61
2023/12/09 07:16:43;;;;;;;15.10;10.80;;;;;;;14.70;32.51;100174.07;106217;1250;71682;-60
2023/12/09 07:19:10;;;;;;;15.80;11.50;;;;;;;14.75;32.53;100170.62;106374;1254;61583;-61
2023/12/09 07:21:39;;;;;;;;;;;;;;;14.83;32.36;100170.77;106154;1254;59665;-61
2023/12/09 07:24:07;;;;;;;17.00;11.20;;;;;;;14.76;32.38;100172.88;106171;1253;73028;-61
2023/12/09 07:26:35;;;;;;;16.80;10.50;;;;;;;14.63;32.55;100169.83;106366;1254;69759;-61
2023/12/09 07:29:05;;;;;;;15.30;10.60;;;;;;;14.56;32.46;100175.99;105944;1254;72369;-62
2023/12/09 07:31:33;;;;;;;12.90;9.70;;;;;;;14.59;32.59;100176.58;106185;1255;59874;-61
2023/12/09 07:34:01;;;;;;;15.10;11.00;;;;;;;14.64;32.48;100185.31;106028;1255;59731;-61
2023/12/09 07:36:29;;;;;;;16.10;11.30;;;;;;;15.21;31.88;100188.90;105954;1251;72964;-61
2023/12/09 07:38:56;;;;;;;16.10;10.60;;;;;;;15.11;31.88;100190.62;106701;1254;69119;-61
2023/12/09 07:41:24;;;;;;;14.50;10.60;;;;;;;15.24;31.81;100189.58;106042;1254;71658;-63
2023/12/09 07:43:52;;;;;;;14.10;10.90;;;;;;;14.77;32.20;100191.91;106124;1254;60743;-63
2023/12/09 07:46:19;;;;;;;14.40;10.40;;;;;;;14.62;32.52;100194.02;106522;1254;59698;-62
2023/12/09 07:48:47;;;;;;;12.10;9.70;;;;;;;14.62;32.58;100201.11;105987;1251;72920;-62
2023/12/09 07:51:15;;;;;;;;;;;;;;;14.57;32.53;100205.93;105920;1251;69339;-65
2023/12/09 07:53:43;;;;;;;9.40;7.70;;;;;;;14.59;32.56;100209.90;105812;1254;72496;-63
2023/12/09 07:56:11;;;;;;;7.70;6.90;;;;;;;14.62;32.31;100212.58;105862;1250;59759;-63
2023/12/09 07:58:39;;;;;;;8.80;6.90;;;;;;;14.56;32.38;100219.58;105956;1251;59836;-61
2023/12/09 08:01:06;;;;;;;;;;;;;;;14.94;32.13;100215.16;106256;1253;72868;-61
2023/12/09 08:03:37;;;;;;;8.90;7.20;;;;;;;15.17;31.89;100212.94;106251;1251;70268;-61
2023/12/09 08:06:06;;;;;;;;;;;;;;;15.36;31.40;100214.91;105959;1254;72900;-61
2023/12/09 08:08:35;;;;;;;8.00;6.10;;;;;;;14.94;31.88;100209.35;105972;1253;59671;-61
2023/12/09 08:11:03;;;;;;;8.30;7.20;;;;;;;15.01;31.84;100210.58;107011;1256;60084;-61
2023/12/09 08:13:30;;;;;;;;;;;;;;;14.94;31.96;100208.12;106197;1254;73438;-60
2023/12/09 08:15:58;;;;;;;6.50;5.60;;;;;;;14.96;32.07;100205.73;106160;1254;69682;-60
2023/12/09 08:18:26;;;;;;;5.80;5.20;;;;;;;15.05;31.80;100205.61;106228;1254;72568;-59
2023/12/09 08:20:54;;;;;;;7.50;6.20;;;;;;;15.10;31.60;100198.45;106435;1254;59369;-60
2023/12/09 08:23:22;;;;;;;6.80;6.20;;;;;;;15.05;31.54;100200.84;106289;1253;59718;-58
2023/12/09 08:25:49;;;;;;;8.60;5.90;;;;;;;15.03;31.78;100200.25;106491;1251;71818;-61
2023/12/09 08:28:17;;;;;;;5.90;5.30;;;;;;;15.02;31.68;100201.73;106168;1254;70022;-61
2023/12/09 08:30:46;;;;;;;6.90;5.70;;;;;;;14.96;31.78;100201.46;106276;1251;73359;-62
2023/12/09 08:33:14;;;;;;;5.70;5.10;;;;;;;15.00;31.78;100198.45;106147;1254;60663;-61
2023/12/09 08:35:42;;;;;;;6.50;5.80;;;;;;;15.08;31.70;100195.23;106239;1253;60802;-61
2023/12/09 08:38:10;;;;;;;;;;;;;;;15.09;31.53;100195.52;105862;1251;72903;-61
2023/12/09 08:40:38;;;;;;;5.90;5.30;;;;;;;15.07;31.58;100195.08;105915;1254;69095;-61
2023/12/09 08:43:07;;;;;;;5.90;5.20;;;;;;;15.07;31.62;100191.73;106460;1254;73385;-61
2023/12/09 08:45:34;;;;;;;6.60;5.40;;;;;;;15.07;31.63;100187.15;106064;1251;59678;-61
2023/12/09 08:48:03;;;;;;;6.00;5.20;;;;;;;15.06;31.59;100178.36;106274;1253;60071;-59
2023/12/09 08:50:30;;;;;;;5.30;4.80;;;;;;;15.19;31.38;100170.77;106020;1253;73493;-63
2023/12/09 08:52:58;;;;;;;5.80;4.70;;;;;;;15.34;31.19;100169.65;106439;1251;69271;-61
2023/12/09 08:55:26;;;;;;;5.50;4.80;;;;;;;15.33;31.21;100168.99;105732;1252;71698;-61
2023/12/09 08:57:53;;;;;;;5.70;4.40;;;;;;;15.31;31.19;100168.19;106071;1251;59993;-61
2023/12/09 09:00:25;;;;;;;4.90;4.40;;;;;;;15.28;31.22;100165.02;106506;1254;59627;-61
2023/12/09 09:02:55;;;;;;;4.60;4.20;;;;;;;15.27;31.09;100163.17;105851;1254;72719;-61
2023/12/09 09:05:24;;;;;;;5.60;4.40;;;;;;;15.27;31.14;100157.49;106969;1251;69299;-61
2023/12/09 09:07:51;;;;;;;5.80;4.60;;;;;;;15.38;31.09;100157.75;106222;1253;72955;-61
2023/12/09 09:10:20;;;;;;;4.50;4.00;;;;;;;15.41;30.98;100153.04;106618;1252;59409;-61
2023/12/09 09:12:49;;;;;;;4.40;4.00;;;;;;;15.42;30.93;100147.29;106873;1251;59712;-61
2023/12/09 09:15:17;;;;;;;4.90;4.40;;;;;;;15.41;31.04;100144.20;106750;1251;74136;-61
2023/12/09 09:17:45;;;;;;;4.60;4.00;;;;;;;15.43;31.09;100145.13;106133;1253;69305;-60
2023/12/09 09:20:12;;;;;;;5.20;4.70;;;;;;;15.51;30.86;100144.70;106478;1251;72802;-61
2023/12/09 09:22:41;;;;;;;;;;;;;;;15.55;30.77;100143.56;108441;1250;60722;-60
2023/12/09 09:25:15;;;;;;;5.10;4.70;;;;;;;15.57;30.77;100145.60;108274;1251;60480;-60
2023/12/09 09:27:43;;;;;;;8.90;4.80;;;;;;;15.54;30.85;100148.23;108103;1254;72055;-60
2023/12/09 09:30:11;;;;;;;;;;;;;;;15.63;30.84;100145.27;108307;1251;69501;-60
2023/12/09 09:32:39;;;;;;;5.20;4.70;;;;;;;15.65;30.79;100148.86;106719;1252;72571;-59
2023/12/09 09:35:08;;;;;;;5.70;5.10;;;;;;;15.71;30.86;100142.89;106992;1251;59702;-61
2023/12/09 09:37:36;;;;;;;5.00;4.60;;;;;;;15.69;30.74;100138.94;105995;1251;59664;-59
2023/12/09 09:40:04;;;;;;;;;;;;;;;15.67;30.64;100140.81;106188;1251;72718;-62
2023/12/09 09:42:51;;;;;;;5.90;5.40;;;;;;;15.65;30.55;100135.61;106257;1251;69302;-60
2023/12/09 09:45:26;;;;;;;7.40;5.70;;;;;;;15.62;30.66;100129.94;105942;1254;73011;-60
2023/12/09 09:48:06;;;;;;;5.60;5.10;;;;;;;15.69;30.57;100124.61;106077;1253;59967;-61
2023/12/09 09:50:40;;;;;;;5.50;5.00;;;;;;;15.62;30.52;100125.36;106172;1253;59630;-59
2023/12/09 09:53:08;;;;;;;6.10;4.80;;;;;;;15.60;30.58;100121.40;106096;1251;72722;-62
2023/12/09 09:55:40;;;;;;;5.10;4.60;;;;;;;15.58;30.59;100120.06;105722;1252;69438;-61
2023/12/09 09:58:08;;;;;;;4.90;4.50;;;;;;;15.61;30.51;100114.83;105553;1252;72400;-61
2023/12/09 10:00:35;;;;;;;4.80;4.40;;;;;;;15.57;30.44;100110.75;105691;1250;60567;-60
2023/12/09 10:03:03;;;;;;;4.70;4.30;;;;;;;15.60;30.41;100110.61;106228;1254;60563;-60
2023/12/09 10:05:31;;;;;;;;;;;;;;;15.56;30.49;100104.66;106101;1254;74054;-62
2023/12/09 10:07:59;;;;;;;5.00;4.50;;;;;;;15.53;30.50;100105.86;105741;1251;68177;-61
2023/12/09 10:10:27;;;;;;;6.40;4.60;;;;;;;15.54;30.34;100110.58;106057;1253;72912;-61
2023/12/09 10:12:55;;;;;;;4.70;4.30;;;;;;;15.45;30.47;100113.60;106279;1252;60443;-61
2023/12/09 10:15:23;;;;;;;4.90;4.40;;;;;;;15.30;30.54;100115.48;106450;1250;59910;-60
2023/12/09 10:17:51;;;;;;;4.70;4.20;;;;;;;15.39;30.62;100117.29;106861;1251;72584;-61
2023/12/09 10:20:18;;;;;;;;;;;;;;;15.37;30.55;100118.97;106145;1251;69126;-60
2023/12/09 10:22:46;;;;;;;4.60;4.00;;;;;;;15.52;30.40;100114.39;106206;1253;73368;-60
2023/12/09 10:25:20;;;;;;;4.50;4.10;;;;;;;15.48;30.45;100110.39;106492;1251;60549;-61
2023/12/09 10:27:48;;;;;;;4.90;4.50;;;;;;;15.58;30.34;100104.02;106606;1249;60512;-61
2023/12/09 10:30:18;;;;;;;5.10;4.60;;;;;;;15.65;30.20;100096.38;106431;1251;74750;-60
2023/12/09 10:32:49;;;;;;;6.10;4.60;;;;;;;15.63;30.28;100088.02;106874;1251;69622;-61
2023/12/09 10:35:17;;;;;;;4.40;4.00;;;;;;;15.73;30.22;100085.17;105597;1254;72521;-59
2023/12/09 10:37:48;;;;;;;4.80;4.30;;;;;;;15.82;29.87;100079.89;106041;1251;60518;-59
2023/12/09 10:40:15;;;;;;;5.00;4.50;;;;;;;15.78;29.97;100077.45;106390;1251;60648;-60
2023/12/09 10:42:43;;;;;;;5.50;5.00;;;;;;;15.90;29.91;100082.80;106064;1252;73683;-61
2023/12/09 10:45:11;;;;;;;5.40;4.90;;;;;;;15.94;29.83;100077.04;106400;1254;69613;-62
2023/12/09 10:47:39;;;;;;;;;;;;;;;15.87;29.89;100075.21;106026;1251;72342;-61
2023/12/09 10:50:08;;;;;;;5.00;4.50;;;;;;;15.85;29.84;100071.96;106234;1253;60559;-60
2023/12/09 10:52:36;;;;;;;4.70;4.20;;;;;;;15.76;29.91;100068.21;105916;1253;60546;-60
2023/12/09 10:55:06;;;;;;;5.90;5.00;;;;;;;15.71;29.91;100063.86;106560;1251;73773;-60
2023/12/09 10:57:34;;;;;;;5.70;4.70;;;;;;;15.69;30.02;100065.20;106125;1251;68471;-60
2023/12/09 11:00:09;;;;;;;;;;;;;;;15.61;30.10;100060.55;106700;1253;72814;-60
2023/12/09 11:02:40;;;;;;;5.50;5.00;;;;;;;15.65;29.90;100061.41;106268;1251;60713;-61
2023/12/09 11:05:09;;;;;;;4.60;4.20;;;;;;;15.71;29.89;100061.95;106063;1251;61575;-59
2023/12/09 11:07:37;;;;;;;5.00;4.60;;;;;;;15.71;29.92;100058.55;106659;1256;72486;-61
2023/12/09 11:10:06;;;;;;;4.90;4.40;;;;;;;15.75;29.88;100058.91;106685;1250;69084;-60
2023/12/09 11:12:37;;;;;;;5.30;4.50;;;;;;;15.77;29.69;100058.81;106940;1251;72482;-62
2023/12/09 11:15:16;;;;;;;5.20;4.70;;;;;;;15.68;29.80;100055.98;106125;1253;60562;-62
2023/12/09 11:17:44;;;;;;;5.20;4.80;;;;;;;15.51;30.00;100058.27;106166;1250;60554;-62
2023/12/09 11:20:14;;;;;;;4.80;4.30;;;;;;;15.56;29.92;100056.39;106564;1251;74023;-62
2023/12/09 11:22:46;;;;;;;5.80;4.90;;;;;;;15.55;30.04;100053.65;107256;1251;69403;-63
2023/12/09 11:25:25;;;;;;;5.30;4.80;;;;;;;15.66;29.98;100051.60;106489;1251;72298;-63
2023/12/09 11:27:53;;;;;;;5.20;4.70;;;;;;;15.68;29.86;100052.60;106848;1252;60451;-63
2023/12/09 11:30:40;;;;;;;5.40;4.90;;;;;;;15.69;29.72;100054.12;106114;1250;60403;-62
2023/12/09 11:33:09;;;;;;;5.30;4.80;;;;;;;15.77;29.78;100050.52;105705;1256;72821;-62
2023/12/09 11:35:37;;;;;;;5.20;4.70;;;;;;;15.67;29.79;100052.44;105788;1251;69844;-62
2023/12/09 11:38:06;;;;;;;5.30;4.80;;;;;;;15.62;29.87;100049.36;105593;1252;72463;-60
2023/12/09 11:40:34;;;;;;;5.40;4.90;;;;;;;15.63;29.71;100048.08;105307;1251;60562;-61
2023/12/09 11:43:08;;;;;;;5.60;4.70;;;;;;;15.62;29.77;100049.71;105004;1253;60452;-60
2023/12/09 11:45:36;;;;;;;5.20;4.70;;;;;;;15.69;29.69;100056.26;105701;1252;74060;-60
2023/12/09 11:48:05;;;;;;;4.90;4.50;;;;;;;15.69;29.56;100057.28;105519;1253;69948;-62
2023/12/09 11:50:33;;;;;;;4.80;4.30;;;;;;;15.62;29.53;100052.36;105516;1252;71403;-61
2023/12/09 11:53:00;;;;;;;5.50;4.70;;;;;;;15.74;29.55;100067.25;105813;1253;60567;-60
2023/12/09 11:55:29;;;;;;;5.60;4.70;;;;;;;15.76;29.57;100073.14;105181;1256;60647;-66
2023/12/09 11:57:57;;;;;;;4.80;4.40;;;;;;;15.83;29.34;100077.16;104662;1253;74057;-63
2023/12/09 12:00:25;;;;;;;5.10;4.70;;;;;;;15.88;29.37;100084.70;105778;1252;69308;-64
2023/12/09 12:02:54;;;;;;;4.90;4.50;;;;;;;15.75;29.52;100081.00;105203;1256;72514;-63
2023/12/09 12:05:21;;;;;;;5.60;5.10;;;;;;;15.85;29.31;100084.65;105364;1253;60447;-63
2023/12/09 12:07:49;;;;;;;;;;;;;;;15.83;29.38;100081.27;105310;1251;60508;-65
2023/12/09 12:10:17;;;;;;;5.90;5.30;;;;;;;15.86;29.41;100081.77;105368;1253;73685;-62
2023/12/09 12:12:45;;;;;;;6.00;5.40;;;;;;;15.84;29.49;100078.90;105517;1252;69084;-64
2023/12/09 12:15:12;;;;;;;;;;;;;;;15.83;29.51;100072.63;105551;1252;73256;-64
2023/12/09 12:17:40;;;;;;;5.10;4.60;;;;;;;15.77;29.57;100068.32;105063;1255;60461;-62
2023/12/09 12:20:10;;;;;;;5.20;4.70;;;;;;;15.78;29.37;100072.00;104819;1251;60508;-64
2023/12/09 12:22:41;;;;;;;5.50;5.00;;;;;;;15.73;29.44;100072.05;105036;1250;73673;-60
2023/12/09 12:25:09;;;;;;;6.00;5.40;;;;;;;15.68;29.46;100070.93;104693;1250;69036;-60
2023/12/09 12:27:44;;;;;;;5.90;5.30;;;;;;;15.67;29.42;100072.60;104650;1254;72489;-60
2023/12/09 12:30:13;;;;;;;5.40;4.80;;;;;;;15.66;29.37;100068.42;104999;1257;60571;-60
2023/12/09 12:32:42;;;;;;;6.50;5.80;;;;;;;15.69;29.28;100064.37;104820;1251;60599;-60
2023/12/09 12:35:11;;;;;;;5.90;5.30;;;;;;;15.71;29.50;100063.35;104729;1256;73686;-60
2023/12/09 12:37:38;;;;;;;;;;;;;;;15.74;29.56;100066.91;104937;1250;69822;-60
2023/12/09 12:40:06;;;;;;;;;;;;;;;15.83;29.55;100067.09;104777;1258;75495;-60
2023/12/09 12:42:35;;;;;;;5.60;5.10;;;;;;;15.87;29.39;100067.58;104931;1253;60545;-61
2023/12/09 12:45:15;;;;;;;5.80;5.20;;;;;;;15.87;29.45;100070.24;104977;1256;60559;-59
2023/12/09 12:47:43;;;;;;;5.20;4.70;;;;;;;15.86;29.43;100067.29;104904;1253;73722;-58
2023/12/09 12:50:12;;;;;;;5.60;5.10;;;;;;;15.92;29.32;100069.59;104537;1251;70014;-61
2023/12/09 12:52:40;;;;;;;5.80;5.20;;;;;;;15.95;29.31;100074.90;105179;1253;73013;-61
2023/12/09 12:55:08;;;;;;;5.70;5.20;;;;;;;15.93;29.29;100074.82;104561;1250;60553;-60
2023/12/09 12:57:36;;;;;;;6.30;5.70;;;;;;;15.91;29.19;100075.29;105406;1251;59937;-60
2023/12/09 13:00:05;;;;;;;;;;;;;;;15.90;29.24;100075.38;104866;1257;73682;-60
2023/12/09 13:02:39;;;;;;;5.80;5.20;;;;;;;15.89;29.19;100073.09;104769;1252;68443;-60